createdAt,value
2023-05-11T00:00:40.219Z,1905.00
2023-05-11T00:01:40.231Z,1684.00
2023-05-11T00:02:40.268Z,1586.00
2023-05-11T00:03:40.332Z,1542.00
2023-05-11T00:04:40.363Z,1621.00
2023-05-11T00:05:40.300Z,1753.00
2023-05-11T00:06:40.331Z,1663.00
2023-05-11T00:07:40.329Z,1394.00
2023-05-11T00:08:40.429Z,1169.00
2023-05-11T00:09:40.483Z,1206.00
2023-05-11T00:10:40.488Z,1089.00
2023-05-11T00:11:40.573Z,935.00
2023-05-11T00:12:40.606Z,1022.00
2023-05-11T00:13:40.664Z,1109.00
2023-05-11T00:14:40.727Z,984.00
2023-05-11T00:15:40.818Z,718.00
2023-05-11T00:16:40.817Z,658.00
2023-05-11T00:17:40.921Z,780.00
2023-05-11T00:18:40.936Z,647.00
2023-05-11T00:19:40.908Z,650.00
2023-05-11T00:20:40.869Z,581.00
2023-05-11T00:21:40.969Z,538.00
2023-05-11T00:22:42.844Z,546.00
2023-05-11T00:23:40.973Z,593.00
2023-05-11T00:24:40.980Z,562.00
2023-05-11T00:25:41.001Z,515.00
2023-05-11T00:26:40.976Z,499.00
2023-05-11T00:27:41.754Z,505.00
2023-05-11T00:28:41.011Z,521.00
2023-05-11T00:29:41.012Z,535.00
2023-05-11T00:30:40.909Z,515.00
2023-05-11T00:31:41.015Z,500.00
2023-05-11T00:32:40.900Z,544.00
2023-05-11T00:33:40.904Z,567.00
2023-05-11T00:34:40.879Z,554.00
2023-05-11T00:35:40.888Z,560.00
2023-05-11T00:36:41.390Z,537.00
2023-05-11T00:37:40.890Z,609.00
2023-05-11T00:38:40.882Z,637.00
2023-05-11T00:39:40.909Z,612.00
2023-05-11T00:40:40.901Z,625.00
2023-05-11T00:41:40.868Z,650.00
2023-05-11T00:42:40.823Z,855.00
2023-05-11T00:43:40.844Z,969.00
2023-05-11T00:44:40.794Z,1151.00
2023-05-11T00:45:40.801Z,977.00
2023-05-11T00:46:40.890Z,864.00
2023-05-11T00:47:40.837Z,775.00
2023-05-11T00:48:40.806Z,701.00
2023-05-11T00:49:40.813Z,597.00
2023-05-11T00:50:40.768Z,568.00
2023-05-11T00:51:40.733Z,587.00
2023-05-11T00:52:40.756Z,744.00
2023-05-11T00:53:40.769Z,756.00
2023-05-11T00:54:40.752Z,554.00
2023-05-11T00:55:40.775Z,483.00
2023-05-11T00:56:40.717Z,495.00
2023-05-11T00:57:40.744Z,513.00
2023-05-11T00:58:40.722Z,548.00
2023-05-11T00:59:40.734Z,563.00
2023-05-11T01:00:40.720Z,526.00
2023-05-11T01:01:40.702Z,499.00
2023-05-11T01:02:40.898Z,525.00
2023-05-11T01:03:40.666Z,589.00
2023-05-11T01:04:40.658Z,581.00
2023-05-11T01:05:40.659Z,579.00
2023-05-11T01:06:40.642Z,610.00
2023-05-11T01:07:40.646Z,651.00
2023-05-11T01:08:40.647Z,750.00
2023-05-11T01:09:40.674Z,683.00
2023-05-11T01:10:40.654Z,662.00
2023-05-11T01:11:40.656Z,663.00
2023-05-11T01:12:40.642Z,613.00
2023-05-11T01:13:40.601Z,587.00
2023-05-11T01:14:40.604Z,563.00
2023-05-11T01:15:40.595Z,626.00
2023-05-11T01:16:40.636Z,615.00
2023-05-11T01:17:40.627Z,564.00
2023-05-11T01:18:40.621Z,558.00
2023-05-11T01:19:40.588Z,560.00
2023-05-11T01:20:40.547Z,590.00
2023-05-11T01:21:40.554Z,610.00
2023-05-11T01:22:40.574Z,593.00
2023-05-11T01:23:40.547Z,662.00
2023-05-11T01:24:40.520Z,672.00
2023-05-11T01:25:40.557Z,639.00
2023-05-11T01:26:40.544Z,797.00
2023-05-11T01:27:40.579Z,903.00
2023-05-11T01:28:40.651Z,892.00
2023-05-11T01:29:40.672Z,880.00
2023-05-11T01:30:40.757Z,952.00
2023-05-11T01:31:40.884Z,1020.00
2023-05-11T01:33:40.950Z,1219.00
2023-05-11T01:34:41.046Z,1180.00
2023-05-11T01:35:41.036Z,1069.00
2023-05-11T01:36:41.107Z,1146.00
2023-05-11T01:37:41.122Z,1235.00
2023-05-11T01:38:41.144Z,1171.00
2023-05-11T01:39:41.246Z,1246.00
2023-05-11T01:40:41.213Z,1316.00
2023-05-11T01:41:41.298Z,1429.00
2023-05-11T01:42:41.302Z,1238.00
2023-05-11T01:43:41.353Z,1064.00
2023-05-11T01:44:41.373Z,1063.00
2023-05-11T01:45:41.393Z,1041.00
2023-05-11T01:46:41.402Z,835.00
2023-05-11T01:47:41.410Z,619.00
2023-05-11T01:48:41.383Z,637.00
2023-05-11T01:49:41.411Z,756.00
2023-05-11T01:50:41.445Z,841.00
2023-05-11T01:51:41.412Z,802.00
2023-05-11T01:52:41.458Z,774.00
2023-05-11T01:53:41.479Z,864.00
2023-05-11T01:54:41.466Z,947.00
2023-05-11T01:55:41.502Z,994.00
2023-05-11T01:56:41.485Z,1045.00
2023-05-11T01:57:41.522Z,1180.00
2023-05-11T01:58:41.519Z,1294.00
2023-05-11T01:59:41.507Z,1429.00
2023-05-11T02:00:41.482Z,1449.00
2023-05-11T02:01:41.585Z,1371.00
2023-05-11T02:02:41.590Z,1321.00
2023-05-11T02:03:41.648Z,1427.00
2023-05-11T02:04:41.572Z,1555.00
2023-05-11T02:05:41.649Z,1627.00
2023-05-11T02:06:41.663Z,1638.00
2023-05-11T02:07:41.610Z,1572.00
2023-05-11T02:08:41.678Z,1585.00
2023-05-11T02:09:41.667Z,1574.00
2023-05-11T02:10:41.669Z,1632.00
2023-05-11T02:11:41.654Z,1635.00
2023-05-11T02:12:41.680Z,1633.00
2023-05-11T02:13:41.652Z,1704.00
2023-05-11T02:14:41.701Z,1654.00
2023-05-11T02:15:41.763Z,1564.00
2023-05-11T02:16:41.722Z,1442.00
2023-05-11T02:17:41.779Z,1469.00
2023-05-11T02:18:41.927Z,1465.00
2023-05-11T02:19:41.844Z,1419.00
2023-05-11T02:20:41.994Z,1479.00
2023-05-11T02:21:42.009Z,1400.00
2023-05-11T02:22:42.013Z,1275.00
2023-05-11T02:23:42.048Z,1126.00
2023-05-11T02:24:42.093Z,1100.00
2023-05-11T02:25:42.187Z,1028.00
2023-05-11T02:26:42.203Z,1060.00
2023-05-11T02:27:42.219Z,1311.00
2023-05-11T02:28:42.329Z,1323.00
2023-05-11T02:29:42.343Z,1311.00
2023-05-11T02:30:42.746Z,1320.00
2023-05-11T02:31:42.616Z,1321.00
2023-05-11T02:32:42.479Z,1229.00
2023-05-11T02:33:42.510Z,1202.00
2023-05-11T02:34:42.509Z,1213.00
2023-05-11T02:35:42.624Z,1281.00
2023-05-11T02:36:42.642Z,1356.00
2023-05-11T02:37:42.687Z,1321.00
2023-05-11T02:38:42.713Z,1276.00
2023-05-11T02:39:42.762Z,1438.00
2023-05-11T02:40:42.811Z,1531.00
2023-05-11T02:41:42.880Z,1525.00
2023-05-11T02:42:42.944Z,1518.00
2023-05-11T02:43:42.937Z,1330.00
2023-05-11T02:44:43.046Z,1319.00
2023-05-11T02:45:43.042Z,1377.00
2023-05-11T02:46:43.142Z,1200.00
2023-05-11T02:47:43.106Z,1005.00
2023-05-11T02:48:43.124Z,746.00
2023-05-11T02:49:43.177Z,659.00
2023-05-11T02:50:43.208Z,735.00
2023-05-11T02:51:43.221Z,754.00
2023-05-11T02:52:43.264Z,990.00
2023-05-11T02:53:43.305Z,1045.00
2023-05-11T02:54:43.349Z,960.00
2023-05-11T02:55:43.411Z,778.00
2023-05-11T02:56:43.430Z,708.00
2023-05-11T02:57:43.411Z,764.00
2023-05-11T02:58:43.416Z,819.00
2023-05-11T02:59:43.483Z,823.00
2023-05-11T03:00:43.560Z,727.00
2023-05-11T03:01:43.699Z,649.00
2023-05-11T03:02:43.722Z,759.00
2023-05-11T03:03:43.812Z,927.00
2023-05-11T03:04:43.734Z,1131.00
2023-05-11T03:05:43.821Z,1263.00
2023-05-11T03:06:43.860Z,1212.00
2023-05-11T03:07:43.966Z,1161.00
2023-05-11T03:08:44.008Z,1229.00
2023-05-11T03:09:44.030Z,1347.00
2023-05-11T03:10:44.122Z,1401.00
2023-05-11T03:11:44.160Z,1480.00
2023-05-11T03:12:44.214Z,1450.00
2023-05-11T03:13:44.267Z,1458.00
2023-05-11T03:14:44.319Z,1539.00
2023-05-11T03:15:44.835Z,1601.00
2023-05-11T03:16:44.477Z,1634.00
2023-05-11T03:17:44.532Z,1611.00
2023-05-11T03:18:44.578Z,1646.00
2023-05-11T03:19:44.589Z,1747.00
2023-05-11T03:20:44.650Z,1787.00
2023-05-11T03:21:44.707Z,1778.00
2023-05-11T03:22:44.738Z,1754.00
2023-05-11T03:23:44.816Z,1721.00
2023-05-11T03:24:44.840Z,1788.00
2023-05-11T03:25:44.999Z,1765.00
2023-05-11T03:26:44.983Z,1791.00
2023-05-11T03:27:45.025Z,1876.00
2023-05-11T03:28:45.129Z,1955.00
2023-05-11T03:29:45.081Z,1882.00
2023-05-11T03:30:45.100Z,1904.00
2023-05-11T03:31:45.146Z,1984.00
2023-05-11T03:32:45.209Z,2016.00
2023-05-11T03:33:45.168Z,1984.00
2023-05-11T03:34:45.194Z,2023.00
2023-05-11T03:35:45.232Z,2077.00
2023-05-11T03:36:45.313Z,2107.00
2023-05-11T03:37:45.365Z,2255.00
2023-05-11T03:38:45.401Z,2399.00
2023-05-11T03:39:45.435Z,2459.00
2023-05-11T03:40:45.533Z,2335.00
2023-05-11T03:41:45.561Z,2240.00
2023-05-11T03:42:45.609Z,2121.00
2023-05-11T03:43:45.655Z,1986.00
2023-05-11T03:44:45.685Z,2020.00
2023-05-11T03:45:45.744Z,2007.00
2023-05-11T03:46:45.722Z,1860.00
2023-05-11T03:47:45.794Z,1825.00
2023-05-11T03:48:45.791Z,1789.00
2023-05-11T03:49:45.838Z,1718.00
2023-05-11T03:50:45.914Z,1712.00
2023-05-11T03:51:45.937Z,1538.00
2023-05-11T03:52:45.979Z,1585.00
2023-05-11T03:53:46.047Z,1946.00
2023-05-11T03:54:46.080Z,1560.00
2023-05-11T03:55:46.110Z,1283.00
2023-05-11T03:56:46.210Z,1357.00
2023-05-11T03:57:46.165Z,1519.00
2023-05-11T03:58:46.237Z,1653.00
2023-05-11T03:59:46.247Z,1962.00
2023-05-11T04:00:46.306Z,2063.00
2023-05-11T04:01:46.311Z,2110.00
2023-05-11T04:02:46.531Z,1904.00
2023-05-11T04:03:46.646Z,1959.00
2023-05-11T04:04:46.472Z,2032.00
2023-05-11T04:05:46.469Z,1936.00
2023-05-11T04:06:46.503Z,2065.00
2023-05-11T04:07:46.560Z,2178.00
2023-05-11T04:08:46.595Z,2147.00
2023-05-11T04:09:46.657Z,2262.00
2023-05-11T04:10:46.683Z,2365.00
2023-05-11T04:11:46.774Z,2618.00
2023-05-11T04:12:46.830Z,3427.00
2023-05-11T04:13:46.904Z,3326.00
2023-05-11T04:14:46.929Z,3334.00
2023-05-11T04:15:47.030Z,3151.00
2023-05-11T04:16:47.041Z,2953.00
2023-05-11T04:17:47.101Z,2901.00
2023-05-11T04:18:47.193Z,2784.00
2023-05-11T04:19:47.194Z,2632.00
2023-05-11T04:20:47.234Z,2545.00
2023-05-11T04:21:47.251Z,2709.00
2023-05-11T04:22:47.291Z,2844.00
2023-05-11T04:23:47.320Z,2688.00
2023-05-11T04:24:47.376Z,3083.00
2023-05-11T04:25:47.424Z,3382.00
2023-05-11T04:26:47.423Z,3214.00
2023-05-11T04:27:47.443Z,2899.00
2023-05-11T04:28:47.491Z,2699.00
2023-05-11T04:29:47.483Z,2475.00
2023-05-11T04:30:47.542Z,2348.00
2023-05-11T04:31:47.612Z,2381.00
2023-05-11T04:32:47.748Z,2402.00
2023-05-11T04:33:47.685Z,4251.00
2023-05-11T04:34:47.763Z,4268.00
2023-05-11T04:35:47.780Z,3542.00
2023-05-11T04:36:47.814Z,2886.00
2023-05-11T04:37:47.917Z,2658.00
2023-05-11T04:38:47.941Z,2484.00
2023-05-11T04:39:47.984Z,2107.00
2023-05-11T04:40:48.063Z,1899.00
2023-05-11T04:41:48.098Z,2027.00
2023-05-11T04:42:48.102Z,1860.00
2023-05-11T04:43:48.092Z,2691.00
2023-05-11T04:44:48.152Z,3311.00
2023-05-11T04:45:48.194Z,2801.00
2023-05-11T04:46:48.265Z,2680.00
2023-05-11T04:47:48.164Z,2603.00
2023-05-11T04:48:48.216Z,2283.00
2023-05-11T04:49:48.265Z,2252.00
2023-05-11T04:50:48.364Z,2162.00
2023-05-11T04:51:48.387Z,2228.00
2023-05-11T04:52:48.349Z,2496.00
2023-05-11T04:53:48.343Z,2607.00
2023-05-11T04:54:48.322Z,2493.00
2023-05-11T04:55:48.445Z,2404.00
2023-05-11T04:56:48.366Z,2430.00
2023-05-11T04:57:48.394Z,2237.00
2023-05-11T04:58:48.423Z,2193.00
2023-05-11T04:59:48.445Z,2323.00
2023-05-11T05:02:15.985Z,500.00
2023-05-11T05:03:08.239Z,500.00
2023-05-11T05:04:08.182Z,500.00
2023-05-11T05:05:08.029Z,500.00
2023-05-11T05:06:08.705Z,500.00
2023-05-11T05:07:08.142Z,500.00
2023-05-11T05:08:08.695Z,500.00
2023-05-11T05:09:08.190Z,500.00
2023-05-11T05:10:08.205Z,500.00
2023-05-11T05:11:09.237Z,500.00
2023-05-11T05:12:08.218Z,500.00
2023-05-11T05:13:08.222Z,500.00
2023-05-11T05:14:08.180Z,500.00
2023-05-11T05:15:08.673Z,500.00
2023-05-11T05:16:08.185Z,500.00
2023-05-11T05:17:08.285Z,500.00
2023-05-11T05:18:08.253Z,500.00
2023-05-11T05:19:08.293Z,500.00
2023-05-11T05:20:08.127Z,500.00
2023-05-11T05:21:08.633Z,500.00
2023-05-11T05:22:08.141Z,500.00
2023-05-11T05:23:08.161Z,500.00
2023-05-11T05:24:08.666Z,500.00
2023-05-11T05:25:08.399Z,500.00
2023-05-11T05:26:09.198Z,500.00
2023-05-11T05:27:08.224Z,500.00
2023-05-11T05:28:09.238Z,500.00
2023-05-11T05:29:08.761Z,500.00
2023-05-11T05:30:09.223Z,500.00
2023-05-11T05:31:08.359Z,500.00
2023-05-11T05:32:08.177Z,500.00
2023-05-11T05:33:08.201Z,500.00
2023-05-11T05:34:08.156Z,500.00
2023-05-11T05:35:08.194Z,500.00
2023-05-11T05:36:08.238Z,500.00
2023-05-11T05:37:08.160Z,500.00
2023-05-11T05:38:08.831Z,500.00
2023-05-11T05:39:08.193Z,500.00
2023-05-11T05:40:08.186Z,500.00
2023-05-11T05:41:08.310Z,500.00
2023-05-11T05:42:08.198Z,500.00
2023-05-11T05:43:08.093Z,500.00
2023-05-11T05:44:08.191Z,500.00
2023-05-11T05:46:35.390Z,500.00
2023-05-11T05:47:27.613Z,500.00
2023-05-11T05:48:27.596Z,500.00
2023-05-11T05:49:27.560Z,500.00
2023-05-11T05:50:27.562Z,500.00
2023-05-11T05:51:28.169Z,500.00
2023-05-11T05:52:27.505Z,561.00
2023-05-11T05:53:27.582Z,609.00
2023-05-11T05:54:28.311Z,586.00
2023-05-11T05:55:28.560Z,647.00
2023-05-11T05:56:28.412Z,879.00
2023-05-11T05:57:27.560Z,1098.00
2023-05-11T05:58:27.520Z,1720.00
2023-05-11T05:59:27.508Z,1874.00
2023-05-11T06:00:27.639Z,1472.00
2023-05-11T06:01:27.786Z,996.00
2023-05-11T06:02:27.696Z,756.00
2023-05-11T06:03:29.216Z,589.00
2023-05-11T06:04:27.682Z,590.00
2023-05-11T06:05:27.712Z,513.00
2023-05-11T06:06:27.735Z,440.00
2023-05-11T06:07:28.303Z,456.00
2023-05-11T06:08:27.873Z,572.00
2023-05-11T06:09:27.857Z,705.00
2023-05-11T06:10:27.885Z,649.00
2023-05-11T06:11:27.908Z,666.00
2023-05-11T06:12:28.298Z,687.00
2023-05-11T06:13:28.074Z,590.00
2023-05-11T06:14:27.901Z,501.00
2023-05-11T06:15:27.895Z,408.00
2023-05-11T06:16:28.107Z,400.00
2023-05-11T06:17:27.924Z,400.00
2023-05-11T06:18:27.942Z,410.00
2023-05-11T06:19:27.959Z,581.00
2023-05-11T06:20:28.342Z,652.00
2023-05-11T06:21:28.022Z,941.00
2023-05-11T06:22:28.331Z,971.00
2023-05-11T06:23:27.937Z,668.00
2023-05-11T06:24:28.304Z,735.00
2023-05-11T06:25:27.996Z,1135.00
2023-05-11T06:26:27.955Z,1372.00
2023-05-11T06:27:28.302Z,1436.00
2023-05-11T06:28:28.387Z,1363.00
2023-05-11T06:29:28.790Z,1397.00
2023-05-11T06:30:28.757Z,1201.00
2023-05-11T06:31:28.224Z,986.00
2023-05-11T06:32:28.326Z,1286.00
2023-05-11T06:33:28.157Z,2223.00
2023-05-11T06:34:28.246Z,1998.00
2023-05-11T06:35:29.251Z,1381.00
2023-05-11T06:36:28.370Z,1041.00
2023-05-11T06:37:28.324Z,1182.00
2023-05-11T06:38:28.473Z,1156.00
2023-05-11T06:39:28.451Z,1255.00
2023-05-11T06:40:28.504Z,794.00
2023-05-11T06:41:28.576Z,689.00
2023-05-11T06:42:28.801Z,1290.00
2023-05-11T06:43:28.692Z,2123.00
2023-05-11T06:44:28.701Z,1802.00
2023-05-11T06:45:28.829Z,1407.00
2023-05-11T06:46:28.874Z,1966.00
2023-05-11T06:47:28.950Z,2226.00
2023-05-11T06:48:28.924Z,2033.00
2023-05-11T06:49:29.149Z,2145.00
2023-05-11T06:50:29.840Z,2237.00
2023-05-11T06:51:29.059Z,1959.00
2023-05-11T06:52:29.174Z,1885.00
2023-05-11T06:53:29.139Z,1978.00
2023-05-11T06:54:29.167Z,2206.00
2023-05-11T06:55:29.187Z,2362.00
2023-05-11T06:56:29.268Z,1981.00
2023-05-11T06:57:29.829Z,1687.00
2023-05-11T06:58:29.457Z,1600.00
2023-05-11T06:59:29.517Z,1860.00
2023-05-11T07:00:29.622Z,2402.00
2023-05-11T07:01:29.642Z,1843.00
2023-05-11T07:02:29.677Z,1716.00
2023-05-11T07:03:29.956Z,2099.00
2023-05-11T07:04:29.918Z,2127.00
2023-05-11T07:05:29.675Z,2123.00
2023-05-11T07:06:29.681Z,2082.00
2023-05-11T07:07:29.852Z,2024.00
2023-05-11T07:08:37.292Z,1924.00
2023-05-11T07:09:29.750Z,1931.00
2023-05-11T07:10:29.659Z,1940.00
2023-05-11T07:11:29.716Z,2031.00
2023-05-11T07:12:29.826Z,1785.00
2023-05-11T07:13:29.840Z,1070.00
2023-05-11T07:14:30.095Z,634.00
2023-05-11T07:15:30.248Z,888.00
2023-05-11T07:16:29.630Z,2253.00
2023-05-11T07:17:29.756Z,1049.00
2023-05-11T07:18:29.837Z,411.00
2023-05-11T07:19:30.036Z,400.00
2023-05-11T07:20:29.611Z,400.00
2023-05-11T07:21:29.654Z,473.00
2023-05-11T07:22:29.810Z,400.00
2023-05-11T07:23:29.602Z,492.00
2023-05-11T07:24:29.974Z,502.00
2023-05-11T07:25:29.695Z,494.00
2023-05-11T07:26:29.925Z,496.00
2023-05-11T07:27:29.827Z,505.00
2023-05-11T07:28:29.890Z,604.00
2023-05-11T07:29:29.903Z,710.00
2023-05-11T07:30:29.947Z,786.00
2023-05-11T07:31:29.936Z,1180.00
2023-05-11T07:32:30.383Z,1546.00
2023-05-11T07:33:30.091Z,1558.00
2023-05-11T07:34:30.090Z,1584.00
2023-05-11T07:35:30.147Z,1867.00
2023-05-11T07:36:30.187Z,1786.00
2023-05-11T07:37:30.331Z,2043.00
2023-05-11T07:38:30.206Z,1868.00
2023-05-11T07:39:30.232Z,2173.00
2023-05-11T07:40:30.251Z,1991.00
2023-05-11T07:41:30.315Z,2026.00
2023-05-11T07:42:30.843Z,1987.00
2023-05-11T07:43:30.369Z,1921.00
2023-05-11T07:44:30.338Z,1509.00
2023-05-11T07:45:30.430Z,919.00
2023-05-11T07:46:30.366Z,759.00
2023-05-11T07:47:30.383Z,652.00
2023-05-11T07:48:30.430Z,693.00
2023-05-11T07:49:40.005Z,1008.00
2023-05-11T07:50:31.509Z,1013.00
2023-05-11T07:51:30.508Z,1015.00
2023-05-11T07:52:30.453Z,1026.00
2023-05-11T07:53:30.487Z,931.00
2023-05-11T07:54:30.438Z,1065.00
2023-05-11T07:55:30.613Z,1026.00
2023-05-11T07:56:30.401Z,979.00
2023-05-11T07:57:30.408Z,1057.00
2023-05-11T07:58:30.419Z,735.00
2023-05-11T07:59:30.428Z,617.00
2023-05-11T08:00:30.378Z,639.00
2023-05-11T08:01:30.356Z,922.00
2023-05-11T08:02:30.433Z,1885.00
2023-05-11T08:03:30.536Z,1819.00
2023-05-11T08:04:30.391Z,909.00
2023-05-11T08:05:30.370Z,621.00
2023-05-11T08:06:30.335Z,613.00
2023-05-11T08:07:30.338Z,634.00
2023-05-11T08:08:30.495Z,631.00
2023-05-11T08:09:30.463Z,606.00
2023-05-11T08:10:30.363Z,571.00
2023-05-11T08:11:30.447Z,785.00
2023-05-11T08:12:30.478Z,669.00
2023-05-11T08:13:30.624Z,859.00
2023-05-11T08:14:30.558Z,1185.00
2023-05-11T08:15:30.534Z,882.00
2023-05-11T08:16:30.674Z,685.00
2023-05-11T08:17:30.748Z,1054.00
2023-05-11T08:18:30.876Z,927.00
2023-05-11T08:19:30.847Z,1000.00
2023-05-11T08:20:30.877Z,1049.00
2023-05-11T08:21:30.892Z,1010.00
2023-05-11T08:22:30.946Z,813.00
2023-05-11T08:23:31.041Z,665.00
2023-05-11T08:24:31.062Z,666.00
2023-05-11T08:25:31.132Z,808.00
2023-05-11T08:26:31.172Z,963.00
2023-05-11T08:27:31.131Z,803.00
2023-05-11T08:28:31.197Z,733.00
2023-05-11T08:29:38.809Z,996.00
2023-05-11T08:30:31.255Z,1000.00
2023-05-11T08:31:31.225Z,1018.00
2023-05-11T08:32:31.251Z,999.00
2023-05-11T08:33:37.965Z,1043.00
2023-05-11T08:34:32.212Z,827.00
2023-05-11T08:35:31.179Z,910.00
2023-05-11T08:36:31.176Z,1085.00
2023-05-11T08:37:31.174Z,1251.00
2023-05-11T08:38:31.200Z,1500.00
2023-05-11T08:39:46.049Z,1776.00
2023-05-11T08:40:32.118Z,1785.00
2023-05-11T08:41:31.224Z,1558.00
2023-05-11T08:42:31.304Z,1126.00
2023-05-11T08:43:31.198Z,701.00
2023-05-11T08:44:31.140Z,573.00
2023-05-11T08:45:31.159Z,517.00
2023-05-11T08:46:31.168Z,618.00
2023-05-11T08:47:31.206Z,643.00
2023-05-11T08:48:31.493Z,565.00
2023-05-11T08:49:31.141Z,595.00
2023-05-11T08:50:31.214Z,710.00
2023-05-11T08:51:31.780Z,632.00
2023-05-11T08:52:31.278Z,588.00
2023-05-11T08:53:31.425Z,521.00
2023-05-11T08:54:31.425Z,502.00
2023-05-11T08:55:31.530Z,510.00
2023-05-11T08:56:31.538Z,1057.00
2023-05-11T08:57:31.521Z,998.00
2023-05-11T08:58:31.523Z,798.00
2023-05-11T08:59:31.524Z,1363.00
2023-05-11T09:00:31.590Z,1265.00
2023-05-11T09:01:31.564Z,781.00
2023-05-11T09:02:32.619Z,1804.00
2023-05-11T09:03:31.575Z,1416.00
2023-05-11T09:04:31.561Z,803.00
2023-05-11T09:05:31.520Z,1207.00
2023-05-11T09:06:31.574Z,1081.00
2023-05-11T09:07:31.622Z,2651.00
2023-05-11T09:08:32.349Z,2637.00
2023-05-11T09:09:31.819Z,2265.00
2023-05-11T09:10:32.221Z,3205.00
2023-05-11T09:11:31.833Z,2410.00
2023-05-11T09:12:31.844Z,905.00
2023-05-11T09:13:32.288Z,463.00
2023-05-11T09:14:31.869Z,413.00
2023-05-11T09:15:36.927Z,531.00
2023-05-11T09:16:37.315Z,468.00
2023-05-11T09:17:32.038Z,535.00
2023-05-11T09:18:32.413Z,599.00
2023-05-11T09:19:32.439Z,618.00
2023-05-11T09:20:32.315Z,610.00
2023-05-11T09:21:32.515Z,481.00
2023-05-11T09:22:33.841Z,576.00
2023-05-11T09:23:32.437Z,579.00
2023-05-11T09:24:31.893Z,600.00
2023-05-11T09:25:32.350Z,655.00
2023-05-11T09:26:31.924Z,682.00
2023-05-11T09:27:33.616Z,1085.00
2023-05-11T09:29:31.882Z,1236.00
2023-05-11T09:30:32.544Z,1281.00
2023-05-11T09:31:32.023Z,1474.00
2023-05-11T09:32:31.918Z,1492.00
2023-05-11T09:33:31.857Z,1656.00
2023-05-11T09:34:31.899Z,1396.00
2023-05-11T09:35:32.909Z,947.00
2023-05-11T09:36:31.843Z,1070.00
2023-05-11T09:37:31.848Z,1422.00
2023-05-11T09:38:32.409Z,1640.00
2023-05-11T09:39:38.201Z,1638.00
2023-05-11T09:42:31.898Z,1478.00
2023-05-11T09:43:31.904Z,1640.00
2023-05-11T09:44:32.182Z,2084.00
2023-05-11T09:45:31.782Z,2177.00
2023-05-11T09:46:32.183Z,1999.00
2023-05-11T09:47:31.815Z,2218.00
2023-05-11T09:48:31.948Z,1961.00
2023-05-11T09:49:32.003Z,2211.00
2023-05-11T09:50:31.737Z,2276.00
2023-05-11T09:51:32.082Z,2718.00
2023-05-11T09:52:31.817Z,3123.00
2023-05-11T09:53:31.726Z,2537.00
2023-05-11T09:54:32.147Z,2980.00
2023-05-11T09:55:31.741Z,3365.00
2023-05-11T09:56:31.729Z,3142.00
2023-05-11T09:57:31.784Z,3298.00
2023-05-11T09:58:31.734Z,3436.00
2023-05-11T09:59:32.229Z,2970.00
2023-05-11T10:00:31.692Z,2818.00
2023-05-11T10:01:31.763Z,2713.00
2023-05-11T10:02:32.365Z,3260.00
2023-05-11T10:03:32.511Z,4055.00
2023-05-11T10:04:31.815Z,4291.00
2023-05-11T10:05:31.808Z,4085.00
2023-05-11T10:06:31.614Z,4101.00
2023-05-11T10:07:31.625Z,3788.00
2023-05-11T10:08:31.656Z,3728.00
2023-05-11T10:09:32.721Z,3801.00
2023-05-11T10:10:31.705Z,3774.00
2023-05-11T10:11:31.862Z,4019.00
2023-05-11T10:12:31.856Z,4342.00
2023-05-11T10:13:31.644Z,4078.00
2023-05-11T10:14:32.136Z,4008.00
2023-05-11T10:15:31.615Z,4104.00
2023-05-11T10:16:31.663Z,4231.00
2023-05-11T10:17:31.626Z,4404.00
2023-05-11T10:18:31.795Z,4072.00
2023-05-11T10:19:31.653Z,3816.00
2023-05-11T10:20:31.989Z,3575.00
2023-05-11T10:21:32.019Z,3535.00
2023-05-11T10:22:31.640Z,3297.00
2023-05-11T10:23:31.739Z,3083.00
2023-05-11T10:24:31.741Z,2916.00
2023-05-11T10:25:32.365Z,2927.00
2023-05-11T10:26:31.610Z,3041.00
2023-05-11T10:27:31.675Z,3510.00
2023-05-11T10:28:31.757Z,3120.00
2023-05-11T10:29:31.968Z,3059.00
2023-05-11T10:30:31.613Z,3022.00
2023-05-11T10:31:31.625Z,3049.00
2023-05-11T10:32:32.408Z,4153.00
2023-05-11T10:33:31.648Z,4112.00
2023-05-11T10:34:31.951Z,3914.00
2023-05-11T10:35:31.522Z,3780.00
2023-05-11T10:36:32.618Z,3642.00
2023-05-11T10:37:31.704Z,3519.00
2023-05-11T10:38:31.581Z,3705.00
2023-05-11T10:39:31.840Z,3775.00
2023-05-11T10:40:31.737Z,3726.00
2023-05-11T10:41:31.667Z,4091.00
2023-05-11T10:42:33.353Z,3417.00
2023-05-11T10:43:31.659Z,3056.00
2023-05-11T10:44:31.867Z,2931.00
2023-05-11T10:45:31.812Z,2895.00
2023-05-11T10:46:31.864Z,2982.00
2023-05-11T10:47:31.899Z,2984.00
2023-05-11T10:48:31.842Z,2734.00
2023-05-11T10:49:32.815Z,2574.00
2023-05-11T10:50:31.955Z,2729.00
2023-05-11T10:51:31.996Z,2607.00
2023-05-11T10:52:32.038Z,2370.00
2023-05-11T10:53:32.691Z,2306.00
2023-05-11T10:54:32.347Z,3181.00
2023-05-11T10:55:32.715Z,3778.00
2023-05-11T10:56:32.053Z,3360.00
2023-05-11T10:57:33.615Z,2921.00
2023-05-11T10:58:32.201Z,2724.00
2023-05-11T10:59:32.724Z,2401.00
2023-05-11T11:00:32.276Z,2429.00
2023-05-11T11:01:32.321Z,2541.00
2023-05-11T11:02:32.320Z,3052.00
2023-05-11T11:03:32.618Z,2623.00
2023-05-11T11:04:32.887Z,2596.00
2023-05-11T11:05:32.445Z,2873.00
2023-05-11T11:06:32.477Z,3944.00
2023-05-11T11:07:32.575Z,3401.00
2023-05-11T11:09:53.173Z,500.00
2023-05-11T11:10:52.212Z,500.00
2023-05-11T11:11:52.221Z,500.00
2023-05-11T11:12:52.163Z,500.00
2023-05-11T11:13:52.210Z,500.00
2023-05-11T11:14:52.203Z,611.00
2023-05-11T11:15:52.170Z,564.00
2023-05-11T11:16:52.179Z,498.00
2023-05-11T11:17:52.146Z,535.00
2023-05-11T11:18:52.234Z,597.00
2023-05-11T11:19:52.381Z,639.00
2023-05-11T11:20:52.164Z,989.00
2023-05-11T11:21:52.238Z,913.00
2023-05-11T11:22:52.124Z,1195.00
2023-05-11T11:23:52.210Z,1262.00
2023-05-11T11:24:52.161Z,993.00
2023-05-11T11:25:53.770Z,1031.00
2023-05-11T11:26:52.187Z,1544.00
2023-05-11T11:27:52.197Z,1576.00
2023-05-11T11:28:52.150Z,1724.00
2023-05-11T11:29:52.187Z,2297.00
2023-05-11T11:30:52.776Z,2129.00
2023-05-11T11:31:52.158Z,2536.00
2023-05-11T11:32:59.820Z,2461.00
2023-05-11T11:33:52.173Z,1985.00
2023-05-11T11:34:52.083Z,2193.00
2023-05-11T11:35:52.323Z,2201.00
2023-05-11T11:36:52.040Z,1647.00
2023-05-11T11:37:52.135Z,1487.00
2023-05-11T11:38:52.669Z,1444.00
2023-05-11T11:39:52.020Z,529.00
2023-05-11T11:40:52.521Z,423.00
2023-05-11T11:41:51.965Z,415.00
2023-05-11T11:42:51.987Z,400.00
2023-05-11T11:43:52.039Z,428.00
2023-05-11T11:44:52.079Z,477.00
2023-05-11T11:45:52.203Z,500.00
2023-05-11T11:46:52.229Z,577.00
2023-05-11T11:47:52.173Z,1533.00
2023-05-11T11:48:54.386Z,1345.00
2023-05-11T11:49:52.311Z,845.00
2023-05-11T11:50:52.184Z,861.00
2023-05-11T11:51:52.208Z,653.00
2023-05-11T11:52:52.182Z,720.00
2023-05-11T11:53:52.146Z,652.00
2023-05-11T11:54:52.197Z,558.00
2023-05-11T11:55:52.166Z,407.00
2023-05-11T11:56:52.256Z,400.00
2023-05-11T11:57:52.136Z,400.00
2023-05-11T11:58:52.172Z,446.00
2023-05-11T11:59:52.204Z,400.00
2023-05-11T12:00:52.249Z,400.00
2023-05-11T12:01:52.101Z,481.00
2023-05-11T12:02:52.234Z,494.00
2023-05-11T12:03:52.224Z,579.00
2023-05-11T12:04:52.112Z,400.00
2023-05-11T12:06:00.271Z,510.00
2023-05-11T12:06:52.120Z,518.00
2023-05-11T12:07:52.189Z,481.00
2023-05-11T12:08:52.132Z,400.00
2023-05-11T12:09:52.157Z,400.00
2023-05-11T12:10:52.152Z,400.00
2023-05-11T12:11:52.259Z,476.00
2023-05-11T12:12:52.269Z,500.00
2023-05-11T12:13:52.238Z,585.00
2023-05-11T12:14:52.324Z,614.00
2023-05-11T12:15:52.364Z,791.00
2023-05-11T12:16:52.429Z,592.00
2023-05-11T12:17:52.456Z,589.00
2023-05-11T12:18:52.649Z,591.00
2023-05-11T12:19:52.435Z,1070.00
2023-05-11T12:20:52.443Z,946.00
2023-05-11T12:21:52.634Z,1261.00
2023-05-11T12:22:52.614Z,1018.00
2023-05-11T12:23:52.574Z,538.00